Terminal Aerodrome Forecast
Issued by NWS

Home | Current Version | Previous Version | Text Only | Print | Product List | Glossary On
Versions: 1 2 3 4 5 6 7 8 9 10 11 12 13 14 15
000
FTUS45 KSLC 202343
TAF36U
TAF
K36U 202343Z 2100/2124 31010G18KT P6SM BKN080 BKN110
     FM210200 VRB04KT P6SM FEW080 SCT110
     FM211700 21014G22KT P6SM VCSH SCT080 SCT150=

USA.gov is the U.S. government's official web portal to all federal, state and local government web resources and services.